Time;durP1;ratioP1;P1;durP2;ratioP2;P2;SDS_P1;SDS_P2;PMS_P1;PMS_P2;Temp;Humidity;BMP_temperature;BMP_pressure;BME280_temperature;BME280_humidity;BME280_pressure;Samples;Min_cycle;Max_cycle;Signal;HPM_P1;HPM_P2
2022/04/28 00:00:12;;;;;;;10.40;5.22;;;;;;;-148.33;100.00;56587.81;5050216;28;20111;-60
2022/04/28 00:02:38;;;;;;;13.38;6.47;;;;;;;-148.33;100.00;56587.81;5050247;28;20033;-59
2022/04/28 00:05:06;;;;;;;9.80;6.03;;;;;;;-148.33;100.00;56587.81;5050349;28;20033;-58
2022/04/28 00:07:31;;;;;;;9.73;6.07;;;;;;;-148.33;100.00;56587.81;5050575;28;20028;-59
2022/04/28 00:09:57;;;;;;;7.85;5.03;;;;;;;-148.33;100.00;56587.81;5049694;28;20044;-60
2022/04/28 00:12:22;;;;;;;10.95;5.57;;;;;;;-148.33;100.00;56587.81;5050915;28;20027;-58
2022/04/28 00:14:47;;;;;;;7.70;5.22;;;;;;;-148.33;100.00;56587.81;5050439;28;20029;-60
2022/04/28 00:17:13;;;;;;;9.82;5.15;;;;;;;-148.33;100.00;56587.81;5050181;28;20032;-59
2022/04/28 00:19:38;;;;;;;8.63;5.65;;;;;;;-148.33;100.00;56587.81;5050239;28;20029;-59
2022/04/28 00:22:04;;;;;;;7.95;5.25;;;;;;;-148.33;100.00;56587.81;5049635;28;20032;-60
2022/04/28 00:24:29;;;;;;;9.05;5.05;;;;;;;-148.33;100.00;56587.81;5049802;28;20028;-59
2022/04/28 00:26:54;;;;;;;9.55;5.75;;;;;;;-148.33;100.00;56587.81;5049910;28;20031;-60
2022/04/28 00:29:21;;;;;;;9.30;5.95;;;;;;;-148.33;100.00;56587.81;5049945;28;20059;-60
2022/04/28 00:31:46;;;;;;;12.23;5.82;;;;;;;-148.33;100.00;56587.81;5050085;28;20596;-60
2022/04/28 00:34:11;;;;;;;7.90;5.60;;;;;;;-148.33;100.00;56587.81;5049232;28;20045;-60
2022/04/28 00:36:37;;;;;;;10.68;5.68;;;;;;;-148.33;100.00;56587.81;5050352;28;20021;-58
2022/04/28 00:39:03;;;;;;;9.25;6.00;;;;;;;-148.33;100.00;56587.81;5049475;28;20366;-59
2022/04/28 00:41:28;;;;;;;8.65;5.93;;;;;;;-148.33;100.00;56587.81;5049683;28;20032;-60
2022/04/28 00:43:54;;;;;;;11.07;5.82;;;;;;;-148.33;100.00;56587.81;5049697;28;20117;-60
2022/04/28 00:46:20;;;;;;;8.95;5.82;;;;;;;-148.33;100.00;56587.81;5050078;28;20119;-59
2022/04/28 00:51:31;;;;;;;9.10;5.97;;;;;;;-148.33;100.00;56587.81;5050180;28;20075;-58
2022/04/28 00:53:59;;;;;;;9.70;6.07;;;;;;;-148.33;100.00;56587.81;5048313;28;20370;-60
2022/04/28 00:56:26;;;;;;;11.00;5.80;;;;;;;-148.33;100.00;56587.81;5049371;28;20033;-59
2022/04/28 00:58:53;;;;;;;10.25;5.68;;;;;;;-148.33;100.00;56587.81;5048758;28;20017;-60
2022/04/28 01:01:19;;;;;;;11.20;6.75;;;;;;;-148.33;100.00;56587.81;5049470;28;20057;-59
2022/04/28 01:03:46;;;;;;;12.68;6.70;;;;;;;-148.33;100.00;56587.81;5049224;28;20079;-59
2022/04/28 01:06:11;;;;;;;10.75;6.40;;;;;;;-148.33;100.00;56587.81;5049162;28;20070;-58
2022/04/28 01:08:37;;;;;;;7.85;5.35;;;;;;;-148.33;100.00;56587.81;5048785;28;20021;-58
2022/04/28 01:11:02;;;;;;;9.57;6.25;;;;;;;-148.33;100.00;56587.81;5049140;28;20027;-58
2022/04/28 01:13:28;;;;;;;9.65;6.18;;;;;;;-148.33;100.00;56587.81;5049228;28;20465;-59
2022/04/28 01:15:54;;;;;;;9.43;5.82;;;;;;;-148.33;100.00;56587.81;5049624;28;20013;-60
2022/04/28 01:18:20;;;;;;;9.52;5.75;;;;;;;-148.33;100.00;56587.81;5049077;28;20032;-59
2022/04/28 01:20:45;;;;;;;12.65;6.70;;;;;;;-148.33;100.00;56587.81;5048771;28;20469;-60
2022/04/28 01:23:11;;;;;;;10.45;6.20;;;;;;;-148.33;100.00;56587.81;5049142;28;20560;-59
2022/04/28 01:25:37;;;;;;;11.30;6.22;;;;;;;-148.33;100.00;56587.81;5048584;28;20524;-59
2022/04/28 01:28:02;;;;;;;9.60;6.25;;;;;;;-148.33;100.00;56587.81;5048601;28;20024;-59
2022/04/28 01:30:28;;;;;;;12.85;6.45;;;;;;;-148.33;100.00;56587.81;5048981;28;20025;-58
2022/04/28 01:32:56;;;;;;;11.33;6.80;;;;;;;-148.33;100.00;56587.81;5048763;28;20129;-59
2022/04/28 01:35:21;;;;;;;8.70;6.23;;;;;;;-148.33;100.00;56587.81;5048383;28;20036;-60
2022/04/28 01:37:47;;;;;;;8.02;6.43;;;;;;;-148.33;100.00;56587.81;5048732;28;20461;-59
2022/04/28 01:40:12;;;;;;;8.68;6.18;;;;;;;-148.33;100.00;56587.81;5048417;28;20031;-59
2022/04/28 01:42:39;;;;;;;9.82;7.30;;;;;;;-148.33;100.00;56587.81;5048115;28;20082;-60
2022/04/28 01:45:06;;;;;;;9.35;6.65;;;;;;;-148.33;100.00;56587.81;5048517;28;20914;-60
2022/04/28 01:47:33;;;;;;;8.57;6.72;;;;;;;-148.33;100.00;56587.81;5049208;28;20029;-59
2022/04/28 01:49:58;;;;;;;11.52;7.28;;;;;;;-148.33;100.00;56587.81;5048378;28;20032;-60
2022/04/28 01:55:07;;;;;;;12.57;7.20;;;;;;;-148.33;100.00;56587.81;5046961;28;20074;-60
2022/04/28 01:57:33;;;;;;;8.93;6.80;;;;;;;-148.33;100.00;56587.81;5048267;28;20057;-59
2022/04/28 02:00:00;;;;;;;11.68;7.07;;;;;;;-148.33;100.00;56587.81;5047897;28;20060;-60
2022/04/28 02:02:25;;;;;;;11.67;7.37;;;;;;;-148.33;100.00;56587.81;5048647;28;20037;-60
2022/04/28 02:04:51;;;;;;;11.53;8.03;;;;;;;-148.33;100.00;56587.81;5048513;28;20457;-59
2022/04/28 02:07:16;;;;;;;11.80;7.20;;;;;;;-148.33;100.00;56587.81;5047585;28;20480;-58
2022/04/28 02:09:45;;;;;;;11.30;7.20;;;;;;;-148.33;100.00;56587.81;5047084;28;20075;-60
2022/04/28 02:12:13;;;;;;;13.65;7.00;;;;;;;-148.33;100.00;56587.81;5048307;28;20033;-59
2022/04/28 02:14:39;;;;;;;10.30;6.53;;;;;;;-148.33;100.00;56587.81;5048139;28;20036;-60
2022/04/28 02:17:04;;;;;;;13.20;7.78;;;;;;;-148.33;100.00;56587.81;5047639;28;20462;-58
2022/04/28 02:19:30;;;;;;;9.90;6.60;;;;;;;-148.33;100.00;56587.81;5047817;28;20677;-59
2022/04/28 02:21:56;;;;;;;13.00;7.47;;;;;;;-148.33;100.00;56587.81;5047900;28;20245;-59
2022/04/28 02:24:21;;;;;;;10.30;7.00;;;;;;;-148.33;100.00;56587.81;5048099;28;20431;-59
2022/04/28 02:26:47;;;;;;;12.27;7.30;;;;;;;-148.33;100.00;56587.81;5047833;28;20842;-58
2022/04/28 02:29:12;;;;;;;9.47;7.47;;;;;;;-148.33;100.00;56587.81;5047452;28;20029;-59
2022/04/28 02:31:37;;;;;;;11.67;7.53;;;;;;;-148.33;100.00;56587.81;5047899;28;20086;-58
2022/04/28 02:34:03;;;;;;;7.63;6.67;;;;;;;-148.33;100.00;56587.81;5047747;28;20319;-57
2022/04/28 02:36:28;;;;;;;14.67;7.60;;;;;;;-148.33;100.00;56587.81;5047252;28;20029;-60
2022/04/28 02:38:53;;;;;;;10.27;7.17;;;;;;;-148.33;100.00;56587.81;5047225;28;20033;-59
2022/04/28 02:41:21;;;;;;;14.90;7.37;;;;;;;-148.33;100.00;56587.81;5048065;28;20059;-59
2022/04/28 02:43:51;;;;;;;14.03;7.60;;;;;;;-148.33;100.00;56587.81;5047955;28;20122;-59
2022/04/28 02:46:17;;;;;;;10.13;7.37;;;;;;;-148.33;100.00;56587.81;5047687;28;20033;-59
2022/04/28 02:48:43;;;;;;;10.73;7.23;;;;;;;-148.33;100.00;56587.81;5048190;28;20412;-59
2022/04/28 02:51:09;;;;;;;14.17;7.07;;;;;;;-148.33;100.00;56587.81;5047187;28;20182;-58
2022/04/28 02:53:34;;;;;;;11.57;7.77;;;;;;;-148.33;100.00;56587.81;5047390;28;20029;-59
2022/04/28 02:56:00;;;;;;;11.90;7.57;;;;;;;-148.33;100.00;56587.81;5047984;28;20032;-59
2022/04/28 02:58:25;;;;;;;10.00;7.13;;;;;;;-148.33;100.00;56587.81;5047361;28;20037;-58
2022/04/28 03:00:50;;;;;;;11.20;7.70;;;;;;;-148.33;100.00;56587.81;5047602;28;20025;-58
2022/04/28 03:03:16;;;;;;;11.70;7.47;;;;;;;-148.33;100.00;56587.81;5047892;28;20456;-58
2022/04/28 03:11:09;;;;;;;11.37;8.00;;;;;;;-148.33;100.00;56587.81;5047201;28;20141;-58
2022/04/28 03:13:35;;;;;;;10.17;7.63;;;;;;;-148.33;100.00;56587.81;5047634;28;20096;-59
2022/04/28 03:16:01;;;;;;;11.90;8.23;;;;;;;-148.33;100.00;56587.81;5047000;28;20067;-59
2022/04/28 03:18:27;;;;;;;13.73;8.53;;;;;;;-148.33;100.00;56587.81;5047526;28;20502;-58
2022/04/28 03:20:52;;;;;;;11.60;8.70;;;;;;;-148.33;100.00;56587.81;5051646;28;20271;-59
2022/04/28 03:23:17;;;;;;;10.87;8.07;;;;;;;-148.33;100.00;56587.81;5050872;28;20469;-58
2022/04/28 03:25:42;;;;;;;11.77;7.80;;;;;;;-148.33;100.00;56587.81;5050982;28;20082;-58
2022/04/28 03:28:08;;;;;;;13.07;8.57;;;;;;;-148.33;100.00;56587.81;5051384;28;20380;-58
2022/04/28 03:30:34;;;;;;;9.97;8.10;;;;;;;-148.33;100.00;56587.81;5049782;28;20029;-58
2022/04/28 03:33:00;;;;;;;9.53;7.93;;;;;;;-148.33;100.00;56587.81;5050791;28;20076;-58
2022/04/28 03:35:25;;;;;;;15.63;8.43;;;;;;;-148.33;100.00;56587.81;5050723;28;20133;-59
2022/04/28 03:37:51;;;;;;;13.40;7.97;;;;;;;-148.33;100.00;56587.81;5050793;28;20037;-58
2022/04/28 03:40:17;;;;;;;13.40;9.30;;;;;;;-148.33;100.00;56587.81;5050824;28;20465;-58
2022/04/28 03:42:43;;;;;;;13.03;9.00;;;;;;;-148.33;100.00;56587.81;5050871;28;20033;-57
2022/04/28 03:45:09;;;;;;;10.30;7.90;;;;;;;-148.33;100.00;56587.81;5050195;28;20500;-57
2022/04/28 03:47:37;;;;;;;14.73;9.43;;;;;;;-148.33;100.00;56587.81;5050611;28;20064;-59
2022/04/28 03:50:06;;;;;;;11.40;8.50;;;;;;;-148.33;100.00;56587.81;5050683;28;20029;-59
2022/04/28 03:52:32;;;;;;;14.33;9.13;;;;;;;-148.33;100.00;56587.81;5050306;28;20490;-59
2022/04/28 03:54:57;;;;;;;11.30;9.13;;;;;;;-148.33;100.00;56587.81;5050099;28;20032;-58
2022/04/28 03:57:22;;;;;;;13.90;8.97;;;;;;;-148.33;100.00;56587.81;5050647;28;20033;-58
2022/04/28 03:59:48;;;;;;;9.90;8.63;;;;;;;-148.33;100.00;56587.81;5050794;28;20017;-57
2022/04/28 04:02:13;;;;;;;10.87;8.13;;;;;;;-148.33;100.00;56587.81;5049744;28;20020;-59
2022/04/28 04:04:39;;;;;;;12.63;9.23;;;;;;;-148.33;100.00;56587.81;5049329;28;20027;-58
2022/04/28 04:07:05;;;;;;;14.70;9.43;;;;;;;-148.33;100.00;56587.81;5048605;28;20026;-59
2022/04/28 04:09:32;;;;;;;14.50;8.60;;;;;;;-148.33;100.00;56587.81;5047849;28;20025;-59
2022/04/28 04:11:57;;;;;;;11.70;8.60;;;;;;;-148.33;100.00;56587.81;5048483;28;20032;-59
2022/04/28 04:14:23;;;;;;;13.77;9.10;;;;;;;-148.33;100.00;56587.81;5048357;28;20474;-59
2022/04/28 04:16:48;;;;;;;15.20;9.50;;;;;;;-148.33;100.00;56587.81;5048384;28;20118;-59
2022/04/28 04:19:14;;;;;;;17.60;10.10;;;;;;;-148.33;100.00;56587.81;5049096;28;20036;-60
2022/04/28 04:21:39;;;;;;;14.10;9.87;;;;;;;-148.33;100.00;56587.81;5049666;28;20139;-59
2022/04/28 04:24:05;;;;;;;15.70;10.53;;;;;;;-148.33;100.00;56587.81;5050280;28;20104;-59
2022/04/28 04:26:30;;;;;;;13.17;9.60;;;;;;;-148.33;100.00;56587.81;5050003;28;20025;-59
2022/04/28 04:28:55;;;;;;;15.73;9.97;;;;;;;-148.33;100.00;56587.81;5050396;28;20040;-59
2022/04/28 04:34:04;;;;;;;17.40;10.23;;;;;;;-148.33;100.00;56587.81;5049670;28;20593;-59
2022/04/28 04:36:30;;;;;;;13.07;10.17;;;;;;;-148.33;100.00;56587.81;5049454;28;20021;-59
2022/04/28 04:38:55;;;;;;;17.47;10.47;;;;;;;-148.33;100.00;56587.81;5049729;28;20048;-59
2022/04/28 04:41:20;;;;;;;14.80;10.43;;;;;;;-148.33;100.00;56587.81;5049546;28;20034;-59
2022/04/28 04:43:45;;;;;;;15.83;9.53;;;;;;;-148.33;100.00;56587.81;5048352;28;20182;-59
2022/04/28 04:46:11;;;;;;;14.50;10.57;;;;;;;-148.33;100.00;56587.81;5049178;28;20052;-60
2022/04/28 04:48:36;;;;;;;14.80;10.27;;;;;;;-148.33;100.00;56587.81;5049263;28;20044;-58
2022/04/28 04:51:02;;;;;;;10.90;9.33;;;;;;;-148.33;100.00;56587.81;5049744;28;20469;-58
2022/04/28 04:53:28;;;;;;;15.43;10.60;;;;;;;-148.33;100.00;56587.81;5049898;28;20036;-58
2022/04/28 04:55:53;;;;;;;11.67;10.00;;;;;;;-148.33;100.00;56587.81;5049499;28;20033;-59
2022/04/28 04:58:19;;;;;;;12.73;10.10;;;;;;;-148.33;100.00;56587.81;5049090;28;20032;-59
2022/04/28 05:00:45;;;;;;;13.97;10.60;;;;;;;-148.33;100.00;56587.81;5049441;28;20032;-59
2022/04/28 05:03:10;;;;;;;18.10;10.83;;;;;;;-148.33;100.00;56587.81;5049862;28;20032;-59
2022/04/28 05:05:35;;;;;;;19.80;12.13;;;;;;;-148.33;100.00;56587.81;5049283;28;20194;-59
2022/04/28 05:08:00;;;;;;;17.83;9.83;;;;;;;-148.33;100.00;56587.81;5048422;28;20025;-57
2022/04/28 05:10:26;;;;;;;17.97;11.63;;;;;;;-148.33;100.00;56587.81;5049160;28;20024;-59
2022/04/28 05:12:51;;;;;;;17.57;10.93;;;;;;;-148.33;100.00;56587.81;5049593;28;20387;-58
2022/04/28 05:15:17;;;;;;;16.83;11.73;;;;;;;-148.33;100.00;56587.81;5048940;28;20466;-59
2022/04/28 05:17:42;;;;;;;16.50;11.57;;;;;;;-148.33;100.00;56587.81;5049110;28;20029;-59
2022/04/28 05:20:08;;;;;;;14.50;11.37;;;;;;;-148.33;100.00;56587.81;5049150;28;20519;-59
2022/04/28 05:22:34;;;;;;;16.33;11.03;;;;;;;-148.33;100.00;56587.81;5048556;28;20028;-60
2022/04/28 05:24:59;;;;;;;15.30;11.50;;;;;;;-148.33;100.00;56587.81;5048814;28;20473;-59
2022/04/28 05:27:25;;;;;;;15.93;11.10;;;;;;;-148.33;100.00;56587.81;5048928;28;20495;-59
2022/04/28 05:29:50;;;;;;;18.70;12.70;;;;;;;-148.33;100.00;56587.81;5048926;28;20017;-58
2022/04/28 05:32:16;;;;;;;12.63;10.97;;;;;;;-148.33;100.00;56587.81;5048726;28;20025;-59
2022/04/28 05:34:41;;;;;;;14.03;11.13;;;;;;;-148.33;100.00;56587.81;5048190;28;20110;-59
2022/04/28 05:37:07;;;;;;;13.37;11.03;;;;;;;-148.33;100.00;56587.81;5048114;28;20043;-59
2022/04/28 05:39:32;;;;;;;19.07;12.40;;;;;;;-148.33;100.00;56587.81;5048962;28;20025;-59
2022/04/28 05:41:57;;;;;;;15.27;11.80;;;;;;;-148.33;100.00;56587.81;5048092;28;20029;-58
2022/04/28 05:47:07;;;;;;;15.45;11.65;;;;;;;-148.33;100.00;56587.81;5048200;28;20511;-59
2022/04/28 05:49:33;;;;;;;13.75;11.90;;;;;;;-148.33;100.00;56587.81;5048507;28;20025;-59
2022/04/28 05:51:59;;;;;;;20.10;12.32;;;;;;;-148.33;100.00;56587.81;5048627;28;20021;-59
2022/04/28 05:54:24;;;;;;;15.10;11.80;;;;;;;-148.33;100.00;56587.81;5048246;28;20032;-60
2022/04/28 05:56:49;;;;;;;16.92;11.40;;;;;;;-148.33;100.00;56587.81;5048586;28;20461;-59
2022/04/28 05:59:16;;;;;;;18.75;12.15;;;;;;;-148.33;100.00;56587.81;5047592;28;20021;-59
2022/04/28 06:01:41;;;;;;;17.70;11.45;;;;;;;-148.33;100.00;56587.81;5048532;28;20021;-59
2022/04/28 06:04:07;;;;;;;21.23;12.93;;;;;;;-148.33;100.00;56587.81;5046807;28;20279;-60
2022/04/28 06:06:33;;;;;;;18.25;11.95;;;;;;;-148.33;100.00;56587.81;5047852;28;20111;-59
2022/04/28 06:08:58;;;;;;;17.15;12.10;;;;;;;-148.33;100.00;56587.81;5048502;28;20032;-59
2022/04/28 06:11:24;;;;;;;16.45;11.93;;;;;;;-148.33;100.00;56587.81;5048183;28;20033;-60
2022/04/28 06:13:49;;;;;;;17.13;12.13;;;;;;;-148.33;100.00;56587.81;5047880;28;20029;-59
2022/04/28 06:16:14;;;;;;;15.75;11.85;;;;;;;-148.33;100.00;56587.81;5047919;28;20021;-59
2022/04/28 06:18:40;;;;;;;17.83;11.57;;;;;;;-148.33;100.00;56587.81;5048426;28;20548;-59
2022/04/28 06:21:05;;;;;;;15.60;11.20;;;;;;;-148.33;100.00;56587.81;5047711;28;20020;-59
2022/04/28 06:23:31;;;;;;;13.43;11.60;;;;;;;-148.33;100.00;56587.81;5048092;28;20096;-60
2022/04/28 06:25:56;;;;;;;19.70;12.20;;;;;;;-148.33;100.00;56587.81;5048175;28;20025;-59
2022/04/28 06:28:21;;;;;;;15.55;11.93;;;;;;;-148.33;100.00;56587.81;5047739;28;20483;-60
2022/04/28 06:30:47;;;;;;;18.23;12.13;;;;;;;-148.33;100.00;56587.81;5048124;28;20448;-62
2022/04/28 06:33:12;;;;;;;14.00;11.57;;;;;;;-148.33;100.00;56587.81;5047716;28;20459;-59
2022/04/28 06:35:38;;;;;;;16.33;10.43;;;;;;;-148.33;100.00;56587.81;5046901;28;20397;-60
2022/04/28 06:38:03;;;;;;;17.17;11.35;;;;;;;-148.33;100.00;56587.81;5047608;28;20024;-59
2022/04/28 06:40:30;;;;;;;13.77;10.57;;;;;;;-148.33;100.00;56587.81;5047637;28;20037;-59
2022/04/28 06:42:56;;;;;;;15.15;11.60;;;;;;;-148.33;100.00;56587.81;5047725;28;20025;-58
2022/04/28 06:45:22;;;;;;;15.02;11.52;;;;;;;-148.33;100.00;56587.81;5047715;28;20406;-59
2022/04/28 06:47:47;;;;;;;16.00;10.95;;;;;;;-148.33;100.00;56587.81;5047284;28;20036;-60
2022/04/28 06:50:13;;;;;;;18.77;11.45;;;;;;;-148.33;100.00;56587.81;5047951;28;20017;-59
2022/04/28 06:52:39;;;;;;;16.60;10.57;;;;;;;-148.33;100.00;56587.81;5047871;28;20028;-58
2022/04/28 06:55:06;;;;;;;14.98;11.13;;;;;;;-148.33;100.00;56587.81;5051665;28;20031;-58
2022/04/28 06:57:31;;;;;;;16.27;10.55;;;;;;;-148.33;100.00;56587.81;5051695;28;20108;-60
2022/04/28 06:59:56;;;;;;;15.38;10.50;;;;;;;-148.33;100.00;56587.81;5051358;28;20166;-60
2022/04/28 07:02:22;;;;;;;15.23;10.73;;;;;;;-148.33;100.00;56587.81;5051698;28;20021;-59
2022/04/28 07:04:47;;;;;;;15.50;10.73;;;;;;;-148.33;100.00;56587.81;5051927;28;20629;-58
2022/04/28 07:07:14;;;;;;;14.15;10.25;;;;;;;-148.33;100.00;56587.81;5051778;28;20107;-59
2022/04/28 07:09:40;;;;;;;12.75;10.15;;;;;;;-148.33;100.00;56587.81;5051240;28;20408;-60
2022/04/28 07:12:06;;;;;;;12.77;9.45;;;;;;;-148.33;100.00;56587.81;5051637;28;20027;-60
2022/04/28 07:14:33;;;;;;;14.63;9.60;;;;;;;-148.33;100.00;56587.81;5051312;28;20072;-60
2022/04/28 07:16:58;;;;;;;15.32;10.10;;;;;;;-148.33;100.00;56587.81;5051223;28;20374;-59
2022/04/28 07:19:23;;;;;;;16.45;10.07;;;;;;;-148.33;100.00;56587.81;5051266;28;20023;-60
2022/04/28 07:21:49;;;;;;;14.60;10.25;;;;;;;-148.33;100.00;56587.81;5051046;28;20431;-60
2022/04/28 07:24:14;;;;;;;18.65;10.80;;;;;;;-148.33;100.00;56587.81;5051658;28;20051;-58
2022/04/28 07:26:40;;;;;;;13.05;9.10;;;;;;;-148.33;100.00;56587.81;5051541;28;20029;-60
2022/04/28 07:29:05;;;;;;;15.50;8.68;;;;;;;-148.33;100.00;56587.81;5050942;28;20091;-60
2022/04/28 07:31:31;;;;;;;15.25;8.63;;;;;;;-148.33;100.00;56587.81;5050796;28;20064;-60
2022/04/28 07:33:56;;;;;;;12.48;8.25;;;;;;;-148.33;100.00;56587.81;5051023;28;20056;-60
2022/04/28 07:36:21;;;;;;;10.30;8.18;;;;;;;-148.33;100.00;56587.81;5050925;28;20174;-61
2022/04/28 07:38:47;;;;;;;16.95;9.02;;;;;;;-148.33;100.00;56587.81;5051307;28;20029;-61
2022/04/28 07:41:13;;;;;;;14.60;8.18;;;;;;;-148.33;100.00;56587.81;5051001;28;20029;-60
2022/04/28 07:43:39;;;;;;;12.93;7.95;;;;;;;-148.33;100.00;56587.81;5050382;28;20057;-60
2022/04/28 07:46:05;;;;;;;15.88;7.97;;;;;;;-148.33;100.00;56587.81;5050795;28;20021;-61
2022/04/28 07:48:30;;;;;;;17.00;8.43;;;;;;;-148.33;100.00;56587.81;5050669;28;20039;-61
2022/04/28 07:50:55;;;;;;;13.52;8.43;;;;;;;-148.33;100.00;56587.81;5051132;28;20032;-61
2022/04/28 07:53:21;;;;;;;13.95;8.45;;;;;;;-148.33;100.00;56587.81;5050684;28;20048;-61
2022/04/28 07:56:10;;;;;;;11.52;8.30;;;;;;;-148.33;100.00;56587.81;5050477;28;20040;-61
2022/04/28 07:58:32;;;;;;;10.50;6.88;;;;;;;-148.33;100.00;56587.81;5050090;28;20477;-60
2022/04/28 08:00:59;;;;;;;10.80;7.20;;;;;;;-148.33;100.00;56587.81;5050691;28;20083;-60
2022/04/28 08:03:24;;;;;;;10.68;7.60;;;;;;;-148.33;100.00;56587.81;5050330;28;20035;-61
2022/04/28 08:05:50;;;;;;;10.70;7.10;;;;;;;-148.33;100.00;56587.81;5049880;28;20021;-60
2022/04/28 08:08:15;;;;;;;11.57;7.70;;;;;;;-148.33;100.00;56587.81;5050204;28;20415;-61
2022/04/28 08:10:41;;;;;;;11.57;7.60;;;;;;;-148.33;100.00;56587.81;5050950;28;20060;-60
2022/04/28 08:13:06;;;;;;;13.65;7.72;;;;;;;-148.33;100.00;56587.81;5050547;28;20078;-61
2022/04/28 08:15:31;;;;;;;10.05;7.78;;;;;;;-148.33;100.00;56587.81;5050084;28;20039;-61
2022/04/28 08:17:57;;;;;;;13.95;7.45;;;;;;;-148.33;100.00;56587.81;5050649;28;20382;-61
2022/04/28 08:20:22;;;;;;;12.38;6.80;;;;;;;-148.33;100.00;56587.81;5050090;28;20033;-61
2022/04/28 08:22:47;;;;;;;9.75;6.57;;;;;;;-148.33;100.00;56587.81;5049622;28;20411;-61
2022/04/28 08:25:12;;;;;;;12.57;7.70;;;;;;;-148.33;100.00;56587.81;5050091;28;20052;-60
2022/04/28 08:27:38;;;;;;;10.43;6.80;;;;;;;-148.33;100.00;56587.81;5050529;28;20021;-61
2022/04/28 08:30:04;;;;;;;12.90;7.20;;;;;;;-148.33;100.00;56587.81;5050766;28;20445;-62
2022/04/28 08:32:29;;;;;;;12.85;7.10;;;;;;;-148.33;100.00;56587.81;5050173;28;20047;-62
2022/04/28 08:34:55;;;;;;;11.95;7.47;;;;;;;-148.33;100.00;56587.81;5050934;28;20044;-62
2022/04/28 08:37:20;;;;;;;12.38;7.07;;;;;;;-148.33;100.00;56587.81;5050163;28;20020;-62
2022/04/28 08:39:45;;;;;;;12.02;6.75;;;;;;;-148.33;100.00;56587.81;5050513;28;20051;-61
2022/04/28 08:42:13;;;;;;;13.32;7.63;;;;;;;-148.33;100.00;56587.81;5050408;28;20533;-62
2022/04/28 08:44:39;;;;;;;18.75;8.10;;;;;;;-148.33;100.00;56587.81;5050497;28;20048;-62
2022/04/28 08:47:04;;;;;;;14.65;7.50;;;;;;;-148.33;100.00;56587.81;5049867;28;20115;-61
2022/04/28 08:49:31;;;;;;;26.92;8.73;;;;;;;-148.33;100.00;56587.81;5050680;28;20120;-61
2022/04/28 08:51:58;;;;;;;13.45;7.80;;;;;;;-148.33;100.00;56587.81;5050074;28;20063;-62
2022/04/28 08:54:26;;;;;;;12.65;7.60;;;;;;;-148.33;100.00;56587.81;5049405;28;20051;-61
2022/04/28 08:56:53;;;;;;;12.00;7.10;;;;;;;-148.33;100.00;56587.81;5049758;28;20028;-61
2022/04/28 08:59:19;;;;;;;11.70;6.72;;;;;;;-148.33;100.00;56587.81;5049974;28;20053;-61
2022/04/28 09:01:45;;;;;;;11.63;7.53;;;;;;;-148.33;100.00;56587.81;5049985;28;20451;-62
2022/04/28 09:04:10;;;;;;;13.13;8.00;;;;;;;-148.33;100.00;56587.81;5049383;28;20028;-62
2022/04/28 09:06:38;;;;;;;11.85;7.13;;;;;;;-148.33;100.00;56587.81;5050264;28;20028;-62
2022/04/28 09:09:15;;;;;;;12.50;8.02;;;;;;;-148.33;100.00;56587.81;5050154;28;20017;-61
2022/04/28 09:11:42;;;;;;;10.70;8.35;;;;;;;-148.33;100.00;56587.81;5049727;28;20405;-61
2022/04/28 09:14:14;;;;;;;12.82;8.98;;;;;;;-148.33;100.00;56587.81;5050244;28;20024;-61
2022/04/28 09:16:57;;;;;;;14.25;9.45;;;;;;;-148.33;100.00;56587.81;5049231;28;20048;-61
2022/04/28 09:19:34;;;;;;;11.80;8.00;;;;;;;-148.33;100.00;56587.81;5049448;28;20277;-61
2022/04/28 09:22:09;;;;;;;14.95;8.52;;;;;;;-148.33;100.00;56587.81;5049742;28;20040;-62
2022/04/28 09:24:39;;;;;;;9.52;7.43;;;;;;;-148.33;100.00;56587.81;5049575;28;20055;-62
2022/04/28 09:27:05;;;;;;;11.75;8.52;;;;;;;-148.33;100.00;56587.81;5049392;28;20024;-61
2022/04/28 09:29:36;;;;;;;11.95;7.40;;;;;;;-148.33;100.00;56587.81;5049867;28;20473;-62
2022/04/28 09:32:02;;;;;;;13.13;7.82;;;;;;;-148.33;100.00;56587.81;5049806;28;20032;-62
2022/04/28 09:34:27;;;;;;;13.32;9.20;;;;;;;-148.33;100.00;56587.81;5049225;28;20044;-62
2022/04/28 09:36:56;;;;;;;12.88;7.15;;;;;;;-148.33;100.00;56587.81;5048775;28;20397;-62
2022/04/28 09:42:31;;;;;;;12.48;7.50;;;;;;;-148.33;100.00;56587.81;5049707;28;20079;-62
2022/04/28 09:45:00;;;;;;;11.60;7.72;;;;;;;-148.33;100.00;56587.81;5049857;28;20040;-62
2022/04/28 09:47:26;;;;;;;13.38;8.10;;;;;;;-148.33;100.00;56587.81;5048923;28;20036;-62
2022/04/28 09:49:55;;;;;;;12.30;7.53;;;;;;;-148.33;100.00;56587.81;5049035;28;20059;-61
2022/04/28 09:52:23;;;;;;;12.73;8.25;;;;;;;-148.33;100.00;56587.81;5049169;28;20017;-61
2022/04/28 09:54:50;;;;;;;13.98;7.15;;;;;;;-148.33;100.00;56587.81;5048859;28;20424;-62
2022/04/28 09:57:17;;;;;;;12.15;7.03;;;;;;;-148.33;100.00;56587.81;5049025;28;20138;-62
2022/04/28 09:59:42;;;;;;;11.95;7.28;;;;;;;-148.33;100.00;56587.81;5047841;28;20060;-62
2022/04/28 10:02:15;;;;;;;11.15;6.65;;;;;;;-148.33;100.00;56587.81;5049262;28;20048;-62
2022/04/28 10:04:44;;;;;;;10.05;6.38;;;;;;;-148.33;100.00;56587.81;5048837;28;20102;-62
2022/04/28 10:07:14;;;;;;;13.13;7.00;;;;;;;-148.33;100.00;56587.81;5048813;28;20025;-62
2022/04/28 10:09:41;;;;;;;8.55;6.00;;;;;;;-148.33;100.00;56587.81;5048908;28;20343;-63
2022/04/28 10:12:07;;;;;;;10.27;6.63;;;;;;;-148.33;100.00;56587.81;5049091;28;20025;-62
2022/04/28 10:14:39;;;;;;;9.90;6.30;;;;;;;-148.33;100.00;56587.81;5048608;28;20062;-62
2022/04/28 10:17:09;;;;;;;10.98;7.15;;;;;;;-148.33;100.00;56587.81;5048400;28;20035;-62
2022/04/28 10:19:38;;;;;;;8.57;6.53;;;;;;;-148.33;100.00;56587.81;5048684;28;20025;-61
2022/04/28 10:22:07;;;;;;;10.93;6.38;;;;;;;-148.33;100.00;56587.81;5048992;28;20021;-61
2022/04/28 10:33:00;;;;;;;11.98;6.68;;;;;;;-148.33;100.00;56587.81;5048466;28;20135;-62
2022/04/28 10:35:46;;;;;;;12.05;6.70;;;;;;;-148.33;100.00;56587.81;5048401;28;20033;-62
2022/04/28 10:38:30;;;;;;;13.43;8.07;;;;;;;-148.33;100.00;56587.81;5047961;28;20062;-62
2022/04/28 10:41:03;;;;;;;10.90;6.88;;;;;;;-148.33;100.00;56587.81;5047132;28;20447;-62
2022/04/28 10:43:34;;;;;;;9.98;7.30;;;;;;;-148.33;100.00;56587.81;5048478;28;20031;-62
2022/04/28 10:45:59;;;;;;;;;;;;;;;-148.33;100.00;56587.81;5048854;28;20025;-62
2022/04/28 10:48:31;;;;;;;10.13;6.85;;;;;;;-148.33;100.00;56587.81;5048101;28;20375;-62
2022/04/28 10:51:04;;;;;;;11.55;7.32;;;;;;;-148.33;100.00;56587.81;5048870;28;20461;-62
2022/04/28 10:53:30;;;;;;;8.23;7.35;;;;;;;-148.33;100.00;56587.81;5048260;28;20539;-62
2022/04/28 10:55:55;;;;;;;13.10;8.52;;;;;;;-148.33;100.00;56587.81;5047950;28;20440;-62
2022/04/28 10:58:23;;;;;;;12.75;7.88;;;;;;;-148.33;100.00;56587.81;5047622;28;20033;-61
2022/04/28 11:00:56;;;;;;;10.23;7.75;;;;;;;-148.33;100.00;56587.81;5046849;28;20059;-62
2022/04/28 11:04:07;;;;;;;11.43;7.88;;;;;;;-148.33;100.00;56587.81;5047676;28;20585;-62
2022/04/28 11:06:38;;;;;;;13.00;8.30;;;;;;;-148.33;100.00;56587.81;5045058;28;20079;-62
2022/04/28 11:09:06;;;;;;;11.75;8.63;;;;;;;-148.33;100.00;56587.81;5047815;28;20670;-62
2022/04/28 11:11:43;;;;;;;10.23;8.38;;;;;;;-148.33;100.00;56587.81;5046825;28;20059;-62
2022/04/28 11:14:08;;;;;;;9.10;6.63;;;;;;;-148.33;100.00;56587.81;5047482;28;20037;-62
2022/04/28 11:16:35;;;;;;;12.77;8.15;;;;;;;-148.33;100.00;56587.81;5047570;28;20032;-62
2022/04/28 11:19:01;;;;;;;11.50;7.95;;;;;;;-148.33;100.00;56587.81;5047626;28;20098;-62
2022/04/28 11:21:27;;;;;;;14.50;8.93;;;;;;;-148.33;100.00;56587.81;5047758;28;20469;-62
2022/04/28 11:23:53;;;;;;;10.90;8.23;;;;;;;-148.33;100.00;56587.81;5047469;28;20025;-62
2022/04/28 11:26:23;;;;;;;12.85;9.25;;;;;;;-148.33;100.00;56587.81;5047239;28;20033;-62